Latest Coastal Weather Observations for Townsville

IDQ60701

Issued at 1:01 am EST Monday 2 March 2015 (issued every 10 minutes, with the page automatically refreshed every 10 minutes)

About coastal observations | Map of coastal stations | Coastal observations for QLD | Marine services | Other Formats
Station Details ID: 032040 Name: TOWNSVILLE AERO Lat: -19.25 Lon: 146.77 Height: 4.34 m
Data from the previous 72 hours. | See also: Recent months at Townsville
Date/Time
EST
Temp

°C
Wind Pressure Rain
since 9am
mm
Weather Cloud Vis
km
Sea
Height
m
Swell
Dir
 
Speed
knots
Gust
knots
hPa Trend Height
m
Period
s
Dir
02/01:00am 27.4 N 6 7 1008.6 - 0.0 - Partly cloudy 10 - - - -
02/12:30am 27.6 N 7 8 1008.8 - 0.0 - - 10 - - - -
02/12:00am 27.6 NNE 6 9 1009.1 - 0.0 - Mostly clear 10 - - - -
 
Date/Time
EST
Temp

°C
Wind Pressure Rain
since 9am
mm
Weather Cloud Vis
km
Sea
Height
m
Swell
Dir
 
Speed
knots
Gust
knots
hPa Trend Height
m
Period
s
Dir
01/11:30pm 27.6 N 5 6 1009.4 - 0.0 - - 10 - - - -
01/11:00pm 27.6 N 6 7 1009.5 - 0.0 - - 10 - - - -
01/10:30pm 27.8 NNE 7 8 1009.2 - 0.0 - Mostly clear 10 - - - -
01/10:00pm 27.7 N 6 7 1009.2 - 0.0 - Mostly clear 10 - - - -
01/09:30pm 27.8 N 7 8 1008.7 - 0.0 - Mostly clear 10 - - - -
01/09:00pm 28.1 N 5 7 1008.6 - 0.0 - Mostly clear 10 - - - -
01/08:30pm 27.8 NNE 5 6 1008.4 - 0.0 - Mostly clear 10 - - - -
01/08:00pm 28.0 N 5 7 1008.3 - 0.0 - Mostly clear 10 - - - -
01/07:30pm 28.1 N 6 7 1008.1 - 0.0 - Mostly clear 10 - - - -
01/07:00pm 28.5 NNE 7 9 1007.5 - 0.0 - Mostly clear 10 - - - -
01/06:30pm 29.1 NE 9 11 1007.2 - 0.0 - Mostly clear 10 - - - -
01/06:00pm 29.9 NE 11 14 1006.9 R 0.0 Haze Mostly clear 30 - - - -
01/05:30pm 30.3 NE 13 15 1006.5 - 0.0 - Mostly clear 10 - - - -
01/05:00pm 30.9 NE 12 16 1006.5 - 0.0 - Mostly clear 10 - - - -
01/04:30pm 30.5 ENE 14 17 1006.3 - 0.0 - Mostly clear 10 - - - -
01/04:00pm 31.5 ENE 13 16 1006.1 - 0.0 - Mostly clear 10 - - - -
01/03:30pm 31.2 ENE 11 15 1006.1 - 0.0 - Mostly clear 10 - - - -
01/03:00pm 32.1 NNE 11 19 1006.2 S 0.0 Haze Mostly clear 30 - - - -
01/02:30pm 32.2 NNE 9 13 1006.6 - 0.0 - Mostly clear 10 - - - -
01/02:00pm 32.0 N 10 14 1007.0 - 0.0 - Mostly clear 10 - - - -
01/01:30pm 31.7 ENE 11 17 1007.3 - 0.0 - - 10 - - - -
01/01:00pm 32.1 NE 12 17 1007.7 - 0.0 - Mostly clear 10 - - - -
01/12:30pm 32.1 NE 11 15 1007.9 - 0.0 - Mostly clear 10 - - - -
01/12:00pm 31.6 ENE 10 15 1008.3 R 0.0 Haze Mostly cloudy 30 - - - -
01/11:30am 30.7 E 10 15 1008.7 - 0.0 - Mostly clear 10 - - - -
01/11:00am 31.8 NE 9 16 1008.9 - 0.0 - Partly cloudy 10 - - - -
01/10:30am 31.1 NE 9 15 1008.8 - 0.0 - Partly cloudy 10 - - - -
01/10:00am 31.1 NNE 9 13 1009.2 - 0.0 - Partly cloudy 10 - - - -
01/09:30am 31.1 NE 9 13 1009.2 - 0.0 - Partly cloudy 10 - - - -
01/09:00am 30.9 NNE 9 15 1009.0 R 0.0 Haze Mostly cloudy 30 - - - -
01/08:30am 30.0 NE 9 13 1009.0 - 0.0 - Partly cloudy 10 - - - -
01/08:00am 29.3 NNE 8 11 1008.5 - 0.0 - Partly cloudy 10 - - - -
01/07:30am 28.8 NNE 8 10 1008.0 - 0.0 - Mostly clear 10 - - - -
01/07:00am 28.0 NE 6 8 1007.5 - 0.0 - Mostly clear 10 - - - -
01/06:30am 26.7 NNE 5 7 1007.5 - 0.0 - Mostly clear 10 - - - -
01/06:00am 26.1 NNE 5 6 1007.2 F 0.0 Haze Partly cloudy 30 - - - -
01/05:30am 26.8 N 5 6 1007.4 - 0.0 - Partly cloudy 10 - - - -
01/05:00am 26.7 N 5 6 1007.2 - 0.0 - - 10 - - - -
01/04:30am 27.1 NNE 6 7 1007.0 - 0.0 - - 10 - - - -
01/04:00am 27.2 NE 8 11 1006.9 - 0.0 - - 10 - - - -
01/03:30am 27.4 NE 8 9 1007.0 - 0.0 - - 10 - - - -
01/03:00am 27.2 NNE 6 10 1006.9 - 0.0 - - 10 - - - -
01/02:30am 27.5 NNE 7 8 1007.2 - 0.0 - - 10 - - - -
01/02:00am 27.6 NNE 5 7 1007.8 - 0.0 - - 10 - - - -
01/01:30am 27.9 NNE 8 10 1008.1 - 0.0 - - 10 - - - -
01/01:00am 27.9 NNE 8 10 1008.5 - 0.0 - - 10 - - - -
01/12:30am 27.6 NNE 7 9 1008.6 - 0.0 - - 10 - - - -
01/12:00am 27.5 NNE 7 10 1008.7 - 0.0 - - 10 - - - -
 
Date/Time
EST
Temp

°C
Wind Pressure Rain
since 9am
mm
Weather Cloud Vis
km
Sea
Height
m
Swell
Dir
 
Speed
knots
Gust
knots
hPa Trend Height
m
Period
s
Dir
28/11:30pm 27.6 NNE 7 8 1009.3 - 0.0 - - 10 - - - -
28/11:00pm 27.7 NNE 6 7 1009.5 - 0.0 - - 10 - - - -
28/10:30pm 28.1 NNE 8 10 1009.2 - 0.0 - Mostly clear 10 - - - -
28/10:00pm 28.3 NE 10 13 1009.0 - 0.0 - Mostly clear 10 - - - -
28/09:30pm 28.3 NNE 9 11 1008.9 - 0.0 - Mostly clear 10 - - - -
28/09:00pm 28.2 NNE 9 12 1008.3 S 0.0 Haze Mostly clear 25 - - - -
28/08:30pm 28.4 NE 10 14 1008.0 - 0.0 - Mostly clear 10 - - - -
28/08:00pm 28.4 NE 10 13 1007.8 - 0.0 - Mostly clear 10 - - - -
28/07:30pm 28.6 NNE 11 15 1007.2 - 0.0 - Mostly clear 10 - - - -
28/07:00pm 28.8 NE 11 15 1006.9 - 0.0 - Mostly clear 10 - - - -
28/06:30pm 29.1 NE 12 16 1006.7 - 0.0 - Mostly clear 10 - - - -
28/06:00pm 29.4 NE 13 17 1006.5 R 0.0 Haze Partly cloudy 25 - - - -
28/05:30pm 30.0 ENE 13 18 1006.4 - 0.0 - Partly cloudy 10 - - - -
28/05:00pm 30.1 ENE 15 18 1006.1 - 0.0 - Mostly clear 10 - - - -
28/04:30pm 31.2 ENE 14 18 1006.0 - 0.0 - Mostly clear 10 - - - -
28/04:00pm 31.3 ENE 16 19 1005.7 - 0.0 - Mostly clear 10 - - - -
28/03:30pm 31.5 ENE 16 19 1005.6 - 0.0 - Mostly clear 10 - - - -
28/03:00pm 32.1 ENE 16 19 1005.4 F 0.0 Haze Mostly clear 25 - - - -
28/02:30pm 32.0 ENE 14 18 1005.9 - 0.0 - Mostly clear 10 - - - -
28/02:00pm 32.2 ENE 14 17 1006.1 - 0.0 - Mostly clear 10 - - - -
28/01:30pm 32.2 NE 10 17 1006.4 - 0.0 - - 10 - - - -
28/01:00pm 32.1 NE 10 15 1006.8 - 0.0 - Mostly clear 10 - - - -
28/12:30pm 32.3 NE 10 14 1007.1 - 0.0 - Mostly clear 10 - - - -
28/12:00pm 32.2 NE 9 15 1007.2 R 0.0 Haze Partly cloudy 25 - - - -
28/11:30am 31.4 N 6 15 1007.6 - 0.0 - Mostly clear 10 - - - -
28/11:00am 31.0 N 6 9 1007.7 - 0.0 - Partly cloudy 10 - - - -
28/10:30am 31.2 NNW 7 12 1007.7 - 0.0 - Partly cloudy 10 - - - -
28/10:00am 31.7 N 7 10 1007.8 - 0.0 - Partly cloudy 10 - - - -
28/09:30am 31.5 N 7 11 1007.9 - 0.0 - Partly cloudy 10 - - - -
28/09:00am 30.1 NW 3 5 1007.6 F 0.0 Haze Partly cloudy 25 - - - -
28/08:30am 29.9 WNW 3 5 1007.7 - 0.0 - Partly cloudy 10 - - - -
28/08:00am 29.2 S 4 5 1007.9 - 0.0 - Mostly clear 10 - - - -
28/07:30am 27.6 S 5 5 1007.6 - 0.0 - Mostly clear 10 - - - -
28/07:00am 27.2 NNW 1 5 1007.2 - 0.0 - Mostly clear 10 - - - -
28/06:30am 26.9 CALM 0 0 1006.8 - 0.0 - Mostly clear 10 - - - -
28/06:00am 26.4 CALM 0 0 1006.4 F 0.0 Haze Mostly clear 25 - - - -
28/05:30am 26.4 NNW 1 3 1006.3 - 0.0 - - 10 - - - -
28/05:00am 26.8 CALM 0 0 1006.3 - 0.0 - - 10 - - - -
28/04:30am 26.9 CALM 0 0 1006.2 - 0.0 - Partly cloudy 10 - - - -
28/04:00am 27.0 NNW 1 4 1006.3 - 0.0 - Partly cloudy 10 - - - -
28/03:30am 27.2 N 4 5 1006.1 - 0.0 - - 10 - - - -
28/03:00am 27.8 N 5 6 1006.1 - 0.0 - - 10 - - - -
28/02:30am 28.1 N 5 6 1006.5 - 0.0 - Partly cloudy 10 - - - -
28/02:00am 28.4 N 7 9 1006.8 - 0.0 - - 10 - - - -
28/01:30am 28.6 N 7 9 1006.9 - 0.0 - Partly cloudy 10 - - - -
28/01:00am 28.5 N 6 7 1007.4 - 0.0 - - 10 - - - -
28/12:30am 28.3 N 7 9 1007.7 - 0.0 - - 10 - - - -
28/12:00am 28.6 NNE 10 12 1008.0 - 0.0 - Mostly clear 10 - - - -
 
Date/Time
EST
Temp

°C
Wind Pressure Rain
since 9am
mm
Weather Cloud Vis
km
Sea
Height
m
Swell
Dir
 
Speed
knots
Gust
knots
hPa Trend Height
m
Period
s
Dir
27/11:30pm 28.7 N 4 7 1008.5 - 0.0 - Partly cloudy 10 - - - -
27/11:00pm 28.5 N 8 10 1007.7 - 0.0 - Partly cloudy 10 - - - -
27/10:30pm 28.8 NE 7 10 1008.2 - 0.0 - Mostly clear 10 - - - -
27/10:00pm 28.7 NNE 9 12 1007.9 - 0.0 - Mostly clear 10 - - - -
27/09:30pm 28.7 N 9 13 1007.6 - 0.0 - Mostly clear 10 - - - -
27/09:00pm 28.8 N 9 12 1007.4 R 0.0 Lightning Mostly cloudy 20 - - - -
27/08:30pm 28.8 N 8 11 1007.0 - 0.0 - Mostly clear 10 - - - -
27/08:00pm 28.8 NNE 9 11 1006.7 - 0.0 - Mostly clear 10 - - - -
27/07:30pm 28.8 N 6 8 1006.3 - 0.0 - Mostly clear 10 - - - -
27/07:00pm 28.9 N 7 10 1005.7 - 0.0 - Mostly clear 10 - - - -
27/06:30pm 29.1 N 8 10 1005.3 - 0.0 - Mostly clear 10 - - - -
27/06:00pm 29.2 N 9 11 1005.1 R 0.0 Distant precip. Mostly cloudy 25 - - - -
27/05:30pm 29.7 N 8 14 1005.5 - 0.0 - Mostly clear 10 - - - -
27/05:00pm 30.9 NNE 10 13 1004.3 - 0.0 - Mostly clear 10 - - - -
27/04:30pm 31.3 NNE 8 11 1004.3 - 0.0 - Mostly clear 10 - - - -
27/04:00pm 32.0 NE 11 14 1004.3 - 0.0 - Mostly clear 10 - - - -
27/03:30pm 33.1 N 9 14 1004.2 - 0.0 - Mostly clear 10 - - - -
27/03:00pm 32.9 NNE 9 14 1004.5 F 0.0 Haze Mostly clear 30 - - - -
27/02:30pm 32.5 NNE 8 14 1005.1 - 0.0 - Mostly clear 10 - - - -
27/02:00pm 32.7 NE 11 15 1005.3 - 0.0 - Mostly clear 10 - - - -
27/01:30pm 32.9 N 8 13 1005.6 - 0.0 - Mostly clear 10 - - - -
27/01:00pm 33.5 NNE 11 16 1006.1 - 0.0 - Mostly clear 10 - - - -
27/12:30pm 32.9 NE 10 13 1006.5 - 0.0 - Mostly clear 10 - - - -
27/12:00pm 32.8 ENE 9 13 1006.9 F 0.0 Haze Partly cloudy 30 - - - -
27/11:30am 31.5 NNW 7 10 1007.4 - 0.0 - Mostly clear 10 - - - -
27/11:00am 30.9 NW 9 12 1007.7 - 0.0 - Partly cloudy 10 - - - -
27/10:30am 30.8 NNW 7 19 1007.7 - 0.0 - Partly cloudy 10 - - - -
27/10:00am 31.9 NNE 9 15 1007.8 - 0.0 - Partly cloudy 10 - - - -
27/09:30am 31.1 N 8 12 1007.9 - 0.0 - Partly cloudy 10 - - - -
27/09:00am 30.6 NNE 9 13 1007.9 F 0.0 Haze Partly cloudy 25 - - - -
27/08:30am 30.2 NNE 8 12 1007.8 - 0.0 - Partly cloudy 10 - - - -
27/08:00am 29.6 N 7 11 1007.6 - 0.0 - Mostly clear 10 - - - -
27/07:30am 29.0 N 4 6 1007.2 - 0.0 - Mostly clear 10 - - - -
27/07:00am 26.9 CALM 0 3 1006.7 - 0.0 - Mostly clear 10 - - - -
27/06:30am 25.7 NNW 4 4 1006.7 - 0.0 - Mostly clear 10 - - - -
27/06:00am 26.6 N 5 7 1006.6 R 0.0 Haze Partly cloudy 15 - - - -
27/05:30am 25.9 NNW 4 5 1006.4 - 0.0 - - 8 - - - -
27/05:00am 25.9 CALM 0 0 1006.3 - 0.0 - - 10 - - - -
27/04:30am 25.9 CALM 0 0 1006.1 - 0.0 - - 10 - - - -
27/04:00am 25.8 N 4 5 1006.1 - 0.0 - - 10 - - - -
27/03:30am 27.3 NE 7 9 1006.0 - 0.0 - - 10 - - - -
27/03:00am 27.4 NNE 8 9 1006.0 - 0.0 - - 10 - - - -
27/02:30am 27.6 NE 6 8 1006.4 - 0.0 - Partly cloudy 10 - - - -
27/02:00am 27.7 NE 7 8 1006.5 - 0.0 - Partly cloudy 10 - - - -
27/01:30am 28.2 NE 8 10 1006.8 - 0.0 - Cloudy 10 - - - -

Other Formats:

Comma delimited format used in spreadsheet applications
http://www.bom.gov.au/fwo/IDQ60701/IDQ60701.94294.axf

JavaScript Object Notation format (JSON) in row-major order
http://www.bom.gov.au/fwo/IDQ60701/IDQ60701.94294.json